Time,TemperatureF,DewpointF,PressureIn,WindDirection,WindDirectionDegrees,WindSpeedMPH,WindSpeedGustMPH,Humidity,HourlyPrecipIn,Conditions,Clouds,dailyrainin,SoftwareType,DateUTC
2013-04-23 00:23:00,57.0,49.0,-100.00,NNE,18,10.0,-999.0,74,0.00,,,-99.99,,2013-04-23 04:23:00,
2013-04-23 00:33:00,57.0,49.0,-100.00,NNE,18,10.0,-999.0,74,0.00,,,-99.99,,2013-04-23 04:33:00,
2013-04-23 00:43:00,57.0,49.0,-100.00,NNE,18,10.0,-999.0,74,0.00,,,-99.99,,2013-04-23 04:43:00,
2013-04-23 01:22:00,56.0,49.0,-100.00,NNE,30,8.0,-999.0,77,0.00,,,-99.99,,2013-04-23 05:22:00,
2013-04-23 01:32:00,56.0,49.0,-100.00,NNE,30,8.0,-999.0,77,0.00,,,-99.99,,2013-04-23 05:32:00,
2013-04-23 01:42:00,56.0,49.0,-100.00,NNE,30,8.0,-999.0,77,0.00,,,-99.99,,2013-04-23 05:42:00,
2013-04-23 02:22:00,55.0,50.0,-100.00,NNE,32,8.0,-999.0,81,0.00,,,-99.99,,2013-04-23 06:22:00,
2013-04-23 02:33:00,55.0,50.0,-100.00,NNE,32,8.0,-999.0,81,0.00,,,-99.99,,2013-04-23 06:33:00,
2013-04-23 02:42:00,55.0,50.0,-100.00,NNE,32,8.0,-999.0,81,0.00,,,-99.99,,2013-04-23 06:42:00,
2013-04-23 03:22:00,54.0,49.0,-100.00,North,9,9.0,-999.0,84,0.00,,,-99.99,,2013-04-23 07:22:00,
2013-04-23 03:32:00,54.0,49.0,-100.00,North,9,9.0,-999.0,84,0.00,,,-99.99,,2013-04-23 07:32:00,
2013-04-23 03:42:00,54.0,49.0,-100.00,North,9,9.0,-999.0,84,0.00,,,-99.99,,2013-04-23 07:42:00,
2013-04-23 04:22:00,53.0,50.0,-100.00,North,358,8.0,-999.0,90,0.00,,,-99.99,,2013-04-23 08:22:00,
2013-04-23 04:32:00,53.0,50.0,-100.00,North,358,8.0,-999.0,90,0.00,,,-99.99,,2013-04-23 08:32:00,
2013-04-23 04:42:00,53.0,50.0,-100.00,North,358,8.0,-999.0,90,0.00,,,-99.99,,2013-04-23 08:42:00,
2013-04-23 05:22:00,52.0,50.0,-100.00,North,357,8.0,-999.0,95,0.00,,,-99.99,,2013-04-23 09:22:00,
2013-04-23 05:33:00,52.0,50.0,-100.00,North,357,8.0,-999.0,95,0.00,,,-99.99,,2013-04-23 09:33:00,
2013-04-23 05:43:00,52.0,50.0,-100.00,North,357,8.0,-999.0,95,0.00,,,-99.99,,2013-04-23 09:43:00,
2013-04-23 06:23:00,51.0,50.0,-100.00,North,2,8.0,-999.0,96,0.00,,,-99.99,,2013-04-23 10:23:00,
2013-04-23 06:33:00,51.0,50.0,-100.00,North,2,8.0,-999.0,96,0.00,,,-99.99,,2013-04-23 10:33:00,
2013-04-23 06:42:00,51.0,50.0,-100.00,North,2,8.0,-999.0,96,0.00,,,-99.99,,2013-04-23 10:42:00,
2013-04-23 07:22:00,51.0,50.0,-100.00,North,353,7.0,-999.0,96,0.00,,,-99.99,,2013-04-23 11:22:00,
2013-04-23 07:32:00,51.0,50.0,-100.00,North,353,7.0,-999.0,96,0.00,,,-99.99,,2013-04-23 11:32:00,
2013-04-23 07:43:00,51.0,50.0,-100.00,North,353,7.0,-999.0,96,0.00,,,-99.99,,2013-04-23 11:43:00,
2013-04-23 08:22:00,52.0,50.0,-100.00,North,1,8.0,-999.0,93,0.00,,,-99.99,,2013-04-23 12:22:00,
2013-04-23 08:32:00,52.0,50.0,-100.00,North,1,8.0,-999.0,93,0.00,,,-99.99,,2013-04-23 12:32:00,
2013-04-23 08:42:00,52.0,50.0,-100.00,North,1,8.0,-999.0,93,0.00,,,-99.99,,2013-04-23 12:42:00,
2013-04-23 09:22:00,52.0,49.0,-100.00,North,10,11.0,-999.0,90,0.00,,,-99.99,,2013-04-23 13:22:00,
2013-04-23 09:32:00,52.0,49.0,-100.00,North,10,11.0,-999.0,90,0.00,,,-99.99,,2013-04-23 13:32:00,
2013-04-23 09:42:00,52.0,49.0,-100.00,North,10,11.0,-999.0,90,0.00,,,-99.99,,2013-04-23 13:42:00,
2013-04-23 10:22:00,53.0,50.0,-100.00,North,4,9.0,-999.0,88,0.00,,,-99.99,,2013-04-23 14:22:00,
2013-04-23 10:32:00,53.0,50.0,-100.00,North,4,9.0,-999.0,88,0.00,,,-99.99,,2013-04-23 14:32:00,
2013-04-23 10:42:00,53.0,50.0,-100.00,North,4,9.0,-999.0,88,0.00,,,-99.99,,2013-04-23 14:42:00,
2013-04-23 11:22:00,55.0,51.0,-100.00,North,359,9.0,-999.0,85,0.00,,,-99.99,,2013-04-23 15:22:00,
2013-04-23 11:32:00,55.0,51.0,-100.00,North,359,9.0,-999.0,85,0.00,,,-99.99,,2013-04-23 15:32:00,
2013-04-23 11:43:00,55.0,51.0,-100.00,North,359,9.0,-999.0,85,0.00,,,-99.99,,2013-04-23 15:43:00,
2013-04-23 12:23:00,57.0,52.0,-100.00,NNE,14,9.0,-999.0,82,0.00,,,-99.99,,2013-04-23 16:23:00,
2013-04-23 12:34:00,57.0,52.0,-100.00,NNE,14,9.0,-999.0,82,0.00,,,-99.99,,2013-04-23 16:34:00,
2013-04-23 12:43:00,57.0,52.0,-100.00,NNE,14,9.0,-999.0,82,0.00,,,-99.99,,2013-04-23 16:43:00,
2013-04-23 13:22:00,58.0,52.0,-100.00,North,353,8.0,-999.0,80,0.00,,,-99.99,,2013-04-23 17:22:00,
2013-04-23 13:33:00,58.0,52.0,-100.00,North,353,8.0,-999.0,80,0.00,,,-99.99,,2013-04-23 17:33:00,
2013-04-23 13:43:00,58.0,52.0,-100.00,North,353,8.0,-999.0,80,0.00,,,-99.99,,2013-04-23 17:43:00,
2013-04-23 14:22:00,61.0,54.0,-100.00,NNE,12,8.0,-999.0,75,0.00,,,-99.99,,2013-04-23 18:22:00,
2013-04-23 14:32:00,61.0,54.0,-100.00,NNE,12,8.0,-999.0,75,0.00,,,-99.99,,2013-04-23 18:32:00,
2013-04-23 14:42:00,61.0,54.0,-100.00,NNE,12,8.0,-999.0,75,0.00,,,-99.99,,2013-04-23 18:42:00,
2013-04-23 15:22:00,63.0,54.0,-100.00,East,82,12.0,-999.0,72,0.00,,,-99.99,,2013-04-23 19:22:00,
2013-04-23 15:32:00,63.0,54.0,-100.00,East,82,12.0,-999.0,72,0.00,,,-99.99,,2013-04-23 19:32:00,
2013-04-23 15:42:00,63.0,54.0,-100.00,East,82,12.0,-999.0,72,0.00,,,-99.99,,2013-04-23 19:42:00,
2013-04-23 16:11:00,62.0,55.0,-100.00,East,92,11.0,-999.0,77,0.00,,,-99.99,,2013-04-23 20:11:00,
2013-04-23 16:22:00,62.0,55.0,-100.00,East,92,11.0,-999.0,77,0.00,,,-99.99,,2013-04-23 20:22:00,
2013-04-23 16:32:00,62.0,55.0,-100.00,East,92,11.0,-999.0,77,0.00,,,-99.99,,2013-04-23 20:32:00,
2013-04-23 16:42:00,62.0,55.0,-100.00,East,92,11.0,-999.0,77,0.00,,,-99.99,,2013-04-23 20:42:00,
2013-04-23 17:12:00,60.0,55.0,-100.00,East,93,9.0,-999.0,81,0.00,,,-99.99,,2013-04-23 21:12:00,
2013-04-23 17:22:00,60.0,55.0,-100.00,East,93,9.0,-999.0,81,0.00,,,-99.99,,2013-04-23 21:22:00,
2013-04-23 17:33:00,60.0,55.0,-100.00,East,93,9.0,-999.0,81,0.00,,,-99.99,,2013-04-23 21:33:00,
2013-04-23 17:43:00,60.0,55.0,-100.00,East,93,9.0,-999.0,81,0.00,,,-99.99,,2013-04-23 21:43:00,
2013-04-23 18:23:00,61.0,54.0,-100.00,ESE,111,8.0,-999.0,80,0.00,,,-99.99,,2013-04-23 22:23:00,
2013-04-23 18:33:00,61.0,54.0,-100.00,ESE,111,8.0,-999.0,80,0.00,,,-99.99,,2013-04-23 22:33:00,
2013-04-23 18:42:00,61.0,54.0,-100.00,ESE,111,8.0,-999.0,80,0.00,,,-99.99,,2013-04-23 22:42:00,
2013-04-23 19:22:00,61.0,55.0,-100.00,ESE,114,6.0,-999.0,80,0.00,,,-99.99,,2013-04-23 23:22:00,
2013-04-23 19:32:00,61.0,55.0,-100.00,ESE,114,6.0,-999.0,80,0.00,,,-99.99,,2013-04-23 23:32:00,
2013-04-23 19:42:00,61.0,55.0,-100.00,ESE,114,6.0,-999.0,80,0.00,,,-99.99,,2013-04-23 23:42:00,
2013-04-23 20:22:00,61.0,55.0,-100.00,SE,140,5.0,-999.0,82,0.00,,,-99.99,,2013-04-24 00:22:00,
2013-04-23 20:32:00,61.0,55.0,-100.00,SE,140,5.0,-999.0,82,0.00,,,-99.99,,2013-04-24 00:32:00,
2013-04-23 20:42:00,61.0,55.0,-100.00,SE,140,5.0,-999.0,82,0.00,,,-99.99,,2013-04-24 00:42:00,
2013-04-23 21:21:00,61.0,56.0,-100.00,SE,145,6.0,-999.0,84,0.00,,,-99.99,,2013-04-24 01:21:00,
2013-04-23 21:32:00,61.0,56.0,-100.00,SE,145,6.0,-999.0,84,0.00,,,-99.99,,2013-04-24 01:32:00,
2013-04-23 21:42:00,61.0,56.0,-100.00,SE,145,6.0,-999.0,84,0.00,,,-99.99,,2013-04-24 01:42:00,
2013-04-23 21:45:00,61.0,55.0,-100.00,SSE,158,6.0,-999.0,83,0.00,,,-99.99,,2013-04-24 01:45:00,
2013-04-23 22:20:00,61.0,55.0,-100.00,SSE,158,6.0,-999.0,83,0.00,,,-99.99,,2013-04-24 02:20:00,
2013-04-23 22:30:00,61.0,55.0,-100.00,SSE,158,6.0,-999.0,83,0.00,,,-99.99,,2013-04-24 02:30:00,
2013-04-23 22:41:00,61.0,55.0,-100.00,SSE,158,6.0,-999.0,83,0.00,,,-99.99,,2013-04-24 02:41:00,
2013-04-23 22:45:00,60.0,56.0,-100.00,SSE,162,5.0,-999.0,87,0.00,,,-99.99,,2013-04-24 02:45:00,
2013-04-23 23:32:00,60.0,56.0,-100.00,SSE,162,5.0,-999.0,87,0.00,,,-99.99,,2013-04-24 03:32:00,
2013-04-23 23:43:00,60.0,56.0,-100.00,SSE,162,5.0,-999.0,87,0.00,,,-99.99,,2013-04-24 03:43:00,